createdAt,value
2022-08-07T00:00:46.912Z,17.80
2022-08-07T00:03:14.910Z,17.70
2022-08-07T00:05:42.898Z,17.80
2022-08-07T00:08:14.652Z,17.70
2022-08-07T00:10:47.956Z,17.70
2022-08-07T00:13:26.805Z,17.70
2022-08-07T00:15:55.984Z,17.70
2022-08-07T00:18:27.180Z,17.70
2022-08-07T00:21:01.631Z,17.60
2022-08-07T00:23:31.143Z,17.60
2022-08-07T00:26:13.363Z,17.60
2022-08-07T00:28:55.676Z,17.60
2022-08-07T00:31:37.148Z,17.60
2022-08-07T00:34:08.750Z,17.60
2022-08-07T00:36:38.493Z,17.50
2022-08-07T00:39:12.899Z,17.50
2022-08-07T00:41:53.616Z,17.50
2022-08-07T00:44:22.325Z,17.50
2022-08-07T00:46:55.410Z,17.40
2022-08-07T00:50:16.774Z,17.50
2022-08-07T00:52:12.312Z,17.40
2022-08-07T00:54:41.049Z,17.40
2022-08-07T00:57:11.930Z,17.40
2022-08-07T00:59:40.494Z,17.30
2022-08-07T01:02:14.241Z,17.30
2022-08-07T01:04:58.693Z,17.30
2022-08-07T01:07:29.622Z,17.30
2022-08-07T01:10:04.635Z,17.30
2022-08-07T01:12:37.736Z,17.30
2022-08-07T01:15:11.749Z,17.20
2022-08-07T01:17:45.140Z,17.20
2022-08-07T01:20:16.658Z,17.20
2022-08-07T01:23:00.596Z,17.20
2022-08-07T01:25:55.146Z,17.20
2022-08-07T01:28:24.631Z,17.10
2022-08-07T01:30:54.673Z,17.10
2022-08-07T01:33:24.841Z,17.10
2022-08-07T01:36:13.046Z,17.10
2022-08-07T01:38:47.116Z,17.00
2022-08-07T01:41:26.056Z,17.00
2022-08-07T01:43:54.454Z,17.00
2022-08-07T01:46:22.901Z,17.00
2022-08-07T01:48:51.762Z,17.00
2022-08-07T01:52:02.301Z,17.00
2022-08-07T01:54:36.518Z,16.90
2022-08-07T01:57:08.446Z,16.90
2022-08-07T01:59:44.175Z,16.90
2022-08-07T02:02:32.766Z,16.90
2022-08-07T02:05:16.126Z,16.80
2022-08-07T02:08:01.031Z,16.80
2022-08-07T02:10:31.644Z,16.80
2022-08-07T02:13:03.062Z,16.70
2022-08-07T02:15:34.105Z,16.70
2022-08-07T02:18:03.823Z,16.70
2022-08-07T02:20:34.314Z,16.70
2022-08-07T02:23:06.028Z,16.70
2022-08-07T02:26:31.081Z,16.70
2022-08-07T02:28:30.503Z,16.70
2022-08-07T02:31:01.790Z,16.60
2022-08-07T02:34:01.847Z,16.60
2022-08-07T02:36:34.274Z,16.60
2022-08-07T02:39:15.987Z,16.50
2022-08-07T02:41:54.460Z,16.50
2022-08-07T02:44:26.851Z,16.50
2022-08-07T02:47:05.101Z,16.50
2022-08-07T02:49:58.985Z,16.50
2022-08-07T02:52:32.147Z,16.40
2022-08-07T02:55:03.695Z,16.40
2022-08-07T02:57:35.644Z,16.40
2022-08-07T03:00:11.227Z,16.40
2022-08-07T03:02:54.295Z,16.30
2022-08-07T03:05:23.231Z,16.30
2022-08-07T03:08:07.151Z,16.30
2022-08-07T03:10:40.736Z,16.30
2022-08-07T03:13:19.600Z,16.20
2022-08-07T03:15:56.385Z,16.20
2022-08-07T03:18:35.075Z,16.20
2022-08-07T03:21:08.446Z,16.20
2022-08-07T03:24:21.130Z,16.10
2022-08-07T03:26:33.170Z,16.20
2022-08-07T03:29:10.404Z,16.10
2022-08-07T03:31:43.041Z,16.10
2022-08-07T03:34:18.292Z,16.10
2022-08-07T03:36:51.734Z,16.10
2022-08-07T03:39:46.084Z,16.10
2022-08-07T03:42:11.326Z,16.10
2022-08-07T03:44:42.486Z,16.10
2022-08-07T03:47:16.198Z,16.00
2022-08-07T03:49:47.946Z,16.00
2022-08-07T03:52:26.380Z,16.00
2022-08-07T03:54:57.112Z,15.90
2022-08-07T03:58:33.768Z,15.90
2022-08-07T04:00:21.032Z,15.90
2022-08-07T04:02:57.251Z,15.90
2022-08-07T04:05:39.502Z,15.80
2022-08-07T04:08:12.465Z,15.80
2022-08-07T04:10:42.455Z,15.80
2022-08-07T04:13:15.269Z,15.80
2022-08-07T04:15:45.908Z,15.70
2022-08-07T04:18:57.123Z,15.70
2022-08-07T04:21:07.258Z,15.70
2022-08-07T04:23:43.283Z,15.70
2022-08-07T04:26:28.361Z,15.70
2022-08-07T04:28:58.572Z,15.60
2022-08-07T04:31:38.971Z,15.60
2022-08-07T04:34:24.046Z,15.60
2022-08-07T04:37:01.581Z,15.60
2022-08-07T04:39:35.602Z,15.50
2022-08-07T04:42:04.616Z,15.50
2022-08-07T04:44:34.203Z,15.50
2022-08-07T04:47:10.582Z,15.50
2022-08-07T04:50:07.051Z,15.50
2022-08-07T04:52:51.325Z,15.50
2022-08-07T04:58:15.885Z,15.50
2022-08-07T04:58:31.586Z,15.50
2022-08-07T05:01:18.720Z,15.50
2022-08-07T05:04:07.132Z,15.50
2022-08-07T05:06:43.415Z,15.50
2022-08-07T05:09:43.001Z,15.50
2022-08-07T05:12:26.975Z,15.50
2022-08-07T05:15:16.009Z,15.50
2022-08-07T05:17:57.117Z,15.60
2022-08-07T05:20:32.301Z,15.60
2022-08-07T05:23:02.978Z,15.60
2022-08-07T05:25:54.609Z,15.50
2022-08-07T05:28:26.614Z,15.60
2022-08-07T05:30:56.784Z,15.60
2022-08-07T05:33:26.060Z,15.50
2022-08-07T05:35:56.653Z,15.60
2022-08-07T05:38:58.435Z,15.60
2022-08-07T05:41:16.830Z,15.60
2022-08-07T05:44:12.158Z,15.70
2022-08-07T05:46:39.383Z,15.70
2022-08-07T05:49:12.506Z,15.70
2022-08-07T05:51:46.552Z,15.70
2022-08-07T05:54:31.312Z,15.80
2022-08-07T05:57:07.362Z,15.80
2022-08-07T05:59:57.301Z,15.80
2022-08-07T06:02:29.591Z,15.90
2022-08-07T06:05:03.528Z,15.90
2022-08-07T06:08:29.239Z,16.00
2022-08-07T06:10:23.001Z,16.10
2022-08-07T06:12:51.190Z,16.10
2022-08-07T06:15:20.406Z,16.10
2022-08-07T06:17:53.647Z,16.20
2022-08-07T06:20:25.733Z,16.20
2022-08-07T06:23:25.056Z,16.30
2022-08-07T06:25:58.572Z,16.30
2022-08-07T06:28:28.588Z,16.40
2022-08-07T06:30:58.902Z,16.40
2022-08-07T06:33:27.215Z,16.50
2022-08-07T06:36:12.839Z,16.60
2022-08-07T06:38:59.214Z,16.60
2022-08-07T06:42:02.140Z,16.70
2022-08-07T06:44:31.023Z,16.70
2022-08-07T06:47:12.343Z,16.80
2022-08-07T06:49:52.023Z,16.80
2022-08-07T06:52:35.302Z,16.90
2022-08-07T06:55:32.413Z,17.00
2022-08-07T06:58:00.935Z,17.10
2022-08-07T07:00:31.883Z,17.10
2022-08-07T07:03:08.862Z,17.20
2022-08-07T07:06:03.542Z,17.30
2022-08-07T07:08:28.723Z,17.30
2022-08-07T07:10:59.143Z,17.40
2022-08-07T07:13:55.959Z,17.50
2022-08-07T07:16:27.509Z,17.50
2022-08-07T07:19:33.906Z,17.60
2022-08-07T07:22:12.336Z,17.70
2022-08-07T07:24:58.378Z,17.70
2022-08-07T07:27:56.217Z,17.80
2022-08-07T07:30:37.856Z,17.90
2022-08-07T07:33:08.865Z,18.00
2022-08-07T07:35:54.199Z,18.00
2022-08-07T07:38:34.880Z,18.10
2022-08-07T07:41:08.614Z,18.20
2022-08-07T07:44:14.381Z,18.30
2022-08-07T07:46:37.922Z,18.40
2022-08-07T07:50:34.144Z,18.50
2022-08-07T07:52:12.902Z,18.50
2022-08-07T07:54:50.468Z,18.60
2022-08-07T07:57:51.987Z,18.60
2022-08-07T08:00:20.814Z,18.70
2022-08-07T08:03:06.279Z,18.80
2022-08-07T08:05:54.428Z,18.80
2022-08-07T08:08:34.417Z,18.80
2022-08-07T08:11:05.500Z,18.90
2022-08-07T08:13:53.331Z,19.00
2022-08-07T08:16:29.986Z,19.00
2022-08-07T08:19:17.964Z,19.10
2022-08-07T08:22:07.804Z,19.10
2022-08-07T08:25:18.944Z,19.20
2022-08-07T08:27:57.296Z,19.20
2022-08-07T08:30:35.068Z,19.30
2022-08-07T08:33:17.066Z,19.30
2022-08-07T08:35:49.885Z,19.40
2022-08-07T08:38:21.767Z,19.40
2022-08-07T08:41:03.610Z,19.50
2022-08-07T08:43:42.839Z,19.50
2022-08-07T08:46:33.112Z,19.60
2022-08-07T08:49:10.142Z,19.60
2022-08-07T08:51:49.740Z,19.60
2022-08-07T08:54:39.624Z,19.70
2022-08-07T08:57:16.229Z,19.70
2022-08-07T08:59:50.383Z,19.70
2022-08-07T09:02:34.694Z,19.80
2022-08-07T09:05:14.682Z,19.80
2022-08-07T09:07:57.686Z,19.90
2022-08-07T09:10:30.645Z,19.90
2022-08-07T09:13:10.883Z,19.90
2022-08-07T09:16:23.469Z,20.00
2022-08-07T09:19:44.858Z,20.00
2022-08-07T09:24:27.447Z,20.10
2022-08-07T09:25:17.244Z,20.10
2022-08-07T09:28:00.060Z,20.20
2022-08-07T09:30:41.738Z,20.20
2022-08-07T09:33:41.143Z,20.20
2022-08-07T09:36:20.215Z,20.30
2022-08-07T09:38:55.927Z,20.40
2022-08-07T09:41:36.463Z,20.40
2022-08-07T09:44:45.248Z,20.40
2022-08-07T09:47:42.417Z,20.50
2022-08-07T09:50:19.111Z,20.50
2022-08-07T09:52:52.271Z,20.50
2022-08-07T09:56:03.091Z,20.60
2022-08-07T09:58:42.454Z,20.60
2022-08-07T10:01:51.152Z,20.70
2022-08-07T10:04:45.955Z,20.70
2022-08-07T10:07:39.715Z,20.80
2022-08-07T10:11:16.572Z,20.90
2022-08-07T10:14:00.665Z,21.00
2022-08-07T10:17:00.876Z,21.00
2022-08-07T10:19:47.764Z,21.10
2022-08-07T10:22:39.376Z,21.10
2022-08-07T10:25:22.835Z,21.20
2022-08-07T10:28:19.908Z,21.20
2022-08-07T10:31:02.483Z,21.30
2022-08-07T10:34:14.556Z,21.30
2022-08-07T10:36:51.604Z,21.30
2022-08-07T10:39:42.244Z,21.40
2022-08-07T10:42:31.330Z,21.50
2022-08-07T10:45:19.439Z,21.50
2022-08-07T10:48:17.442Z,21.50
2022-08-07T10:50:51.856Z,21.60
2022-08-07T10:53:44.558Z,21.60
2022-08-07T10:56:36.515Z,21.60
2022-08-07T10:59:21.412Z,21.60
2022-08-07T11:02:05.457Z,21.70
2022-08-07T11:04:57.556Z,21.70
2022-08-07T11:07:59.366Z,21.80
2022-08-07T11:10:47.674Z,21.80
2022-08-07T11:14:42.607Z,21.90
2022-08-07T11:16:22.437Z,21.90
2022-08-07T11:19:05.357Z,21.90
2022-08-07T11:21:42.875Z,22.00
2022-08-07T11:24:19.330Z,22.00
2022-08-07T11:26:54.977Z,22.10
2022-08-07T11:29:42.587Z,22.20
2022-08-07T11:32:25.289Z,22.20
2022-08-07T11:34:59.696Z,22.30
2022-08-07T11:37:58.067Z,22.40
2022-08-07T11:40:50.227Z,22.40
2022-08-07T11:43:29.831Z,22.40
2022-08-07T11:46:36.836Z,22.50
2022-08-07T11:50:25.150Z,22.50
2022-08-07T11:52:52.947Z,22.60
2022-08-07T11:56:25.980Z,22.60
2022-08-07T11:58:39.476Z,22.60
2022-08-07T12:01:19.982Z,22.70
2022-08-07T12:04:14.756Z,22.70
2022-08-07T12:06:56.238Z,22.70
2022-08-07T12:09:36.617Z,22.70
2022-08-07T12:12:11.682Z,22.80
2022-08-07T12:14:53.882Z,22.80
2022-08-07T12:17:33.838Z,22.80
2022-08-07T12:20:30.433Z,22.80
2022-08-07T12:23:17.985Z,22.80
2022-08-07T12:26:28.979Z,22.90
2022-08-07T12:29:07.027Z,22.90
2022-08-07T12:32:01.972Z,23.00
2022-08-07T12:34:32.994Z,23.00
2022-08-07T12:37:16.244Z,23.10
2022-08-07T12:39:51.307Z,23.10
2022-08-07T12:42:27.662Z,23.20
2022-08-07T12:44:59.733Z,23.20
2022-08-07T12:47:49.268Z,23.30
2022-08-07T12:50:38.340Z,23.30
2022-08-07T12:53:18.132Z,23.40
2022-08-07T12:56:03.129Z,23.40
2022-08-07T12:58:39.589Z,23.50
2022-08-07T13:01:18.497Z,23.50
2022-08-07T13:04:03.031Z,23.60
2022-08-07T13:07:00.163Z,23.60
2022-08-07T13:10:19.500Z,23.70
2022-08-07T13:12:51.713Z,23.70
2022-08-07T13:15:31.918Z,23.80
2022-08-07T13:18:26.301Z,23.80
2022-08-07T13:21:03.698Z,24.00
2022-08-07T13:24:01.300Z,24.00
2022-08-07T13:26:37.955Z,24.10
2022-08-07T13:29:15.420Z,24.10
2022-08-07T13:31:55.327Z,24.20
2022-08-07T13:34:36.597Z,24.20
2022-08-07T13:37:19.864Z,24.30
2022-08-07T13:40:35.033Z,24.30
2022-08-07T13:43:05.725Z,24.40
2022-08-07T13:46:10.905Z,24.40
2022-08-07T13:48:38.468Z,24.50
2022-08-07T13:51:28.358Z,24.50
2022-08-07T13:54:03.267Z,24.50
2022-08-07T13:56:41.202Z,24.60
2022-08-07T13:59:22.964Z,24.60
2022-08-07T14:02:03.520Z,24.60
2022-08-07T14:04:49.292Z,24.70
2022-08-07T14:07:21.358Z,24.80
2022-08-07T14:10:17.713Z,24.80
2022-08-07T14:12:54.933Z,24.90
2022-08-07T14:15:32.061Z,25.00
2022-08-07T14:18:23.540Z,25.10
2022-08-07T14:21:08.113Z,25.10
2022-08-07T14:24:01.154Z,25.10
2022-08-07T14:26:37.071Z,25.20
2022-08-07T14:30:05.897Z,25.20
2022-08-07T14:32:02.912Z,25.30
2022-08-07T14:34:34.153Z,25.40
2022-08-07T14:37:18.330Z,25.50
2022-08-07T14:40:17.945Z,25.50
2022-08-07T14:43:55.112Z,25.60
2022-08-07T14:48:20.716Z,25.70
2022-08-07T14:50:51.868Z,25.90
2022-08-07T14:54:08.703Z,26.00
2022-08-07T14:56:15.493Z,26.10
2022-08-07T14:59:02.969Z,26.20
2022-08-07T15:01:42.446Z,26.30
2022-08-07T15:04:12.633Z,26.30
2022-08-07T15:06:47.891Z,26.30
2022-08-07T15:12:26.280Z,26.20
2022-08-07T15:13:05.560Z,26.20
2022-08-07T15:17:59.343Z,26.30
2022-08-07T15:20:55.078Z,26.40
2022-08-07T15:25:02.161Z,26.60
2022-08-07T15:26:28.717Z,26.70
2022-08-07T15:31:57.897Z,26.90
2022-08-07T15:34:30.570Z,27.00
2022-08-07T15:37:06.883Z,27.00
2022-08-07T15:39:57.508Z,27.10
2022-08-07T15:42:57.994Z,27.00
2022-08-07T15:45:56.812Z,26.90
2022-08-07T15:51:18.155Z,26.90
2022-08-07T15:53:53.621Z,26.80
2022-08-07T15:56:33.343Z,26.70
2022-08-07T15:59:05.800Z,26.70
2022-08-07T16:01:38.487Z,26.50
2022-08-07T16:04:14.621Z,26.40
2022-08-07T16:06:49.371Z,26.30
2022-08-07T16:09:24.054Z,26.20
2022-08-07T16:12:28.889Z,26.10
2022-08-07T16:15:55.750Z,25.80
2022-08-07T16:18:49.774Z,25.70
2022-08-07T16:22:01.669Z,25.60
2022-08-07T16:24:34.265Z,25.50
2022-08-07T16:27:18.007Z,25.50
2022-08-07T16:30:30.885Z,25.40
2022-08-07T16:34:01.723Z,25.30
2022-08-07T16:36:20.100Z,25.30
2022-08-07T16:39:04.985Z,25.30
2022-08-07T16:41:58.234Z,25.20
2022-08-07T16:48:09.494Z,25.30
2022-08-07T16:51:21.057Z,25.30
2022-08-07T16:54:32.595Z,25.20
2022-08-07T16:58:01.770Z,25.20
2022-08-07T17:00:30.071Z,25.10
2022-08-07T17:03:19.286Z,25.00
2022-08-07T17:06:31.493Z,25.00
2022-08-07T17:09:14.383Z,25.00
2022-08-07T17:12:33.554Z,25.00
2022-08-07T17:15:04.681Z,24.90
2022-08-07T17:17:46.463Z,24.90
2022-08-07T17:20:30.766Z,24.90
2022-08-07T17:23:11.522Z,24.70
2022-08-07T17:25:54.553Z,24.70
2022-08-07T17:28:38.240Z,24.70
2022-08-07T17:31:16.008Z,24.60
2022-08-07T17:34:32.874Z,24.50
2022-08-07T17:36:58.166Z,24.40
2022-08-07T17:39:57.830Z,24.40
2022-08-07T17:42:58.703Z,24.30
2022-08-07T17:45:32.134Z,24.20
2022-08-07T17:48:11.082Z,24.20
2022-08-07T17:50:52.603Z,24.10
2022-08-07T17:54:00.853Z,24.10
2022-08-07T17:56:29.878Z,24.10
2022-08-07T17:59:10.260Z,24.00
2022-08-07T18:01:51.384Z,24.00
2022-08-07T18:04:42.330Z,23.90
2022-08-07T18:07:34.043Z,24.00
2022-08-07T18:10:32.552Z,23.90
2022-08-07T18:13:17.843Z,23.90
2022-08-07T18:16:05.744Z,23.80
2022-08-07T18:21:04.598Z,23.60
2022-08-07T18:21:53.575Z,23.60
2022-08-07T18:24:34.479Z,23.50
2022-08-07T18:27:39.027Z,23.40
2022-08-07T18:30:32.636Z,23.30
2022-08-07T18:33:54.564Z,23.10
2022-08-07T18:36:33.813Z,23.10
2022-08-07T18:40:08.863Z,23.00
2022-08-07T18:42:12.941Z,23.00
2022-08-07T18:48:01.313Z,22.80
2022-08-07T18:50:54.482Z,22.80
2022-08-07T18:53:39.451Z,22.70
2022-08-07T18:56:15.142Z,22.70
2022-08-07T18:59:04.201Z,22.60
2022-08-07T19:02:20.082Z,22.60
2022-08-07T19:04:59.421Z,22.50
2022-08-07T19:07:35.051Z,22.50
2022-08-07T19:10:10.951Z,22.40
2022-08-07T19:12:59.519Z,22.40
2022-08-07T19:16:04.274Z,22.30
2022-08-07T19:18:45.121Z,22.20
2022-08-07T19:21:46.585Z,22.10
2022-08-07T19:24:30.869Z,22.10
2022-08-07T19:28:58.402Z,22.00
2022-08-07T19:31:03.012Z,22.00
2022-08-07T19:32:51.390Z,21.90
2022-08-07T19:35:25.252Z,21.90
2022-08-07T19:37:58.417Z,21.80
2022-08-07T19:40:31.874Z,21.80
2022-08-07T19:43:10.715Z,21.70
2022-08-07T19:46:05.378Z,21.50
2022-08-07T19:48:42.595Z,21.60
2022-08-07T19:51:20.002Z,21.50
2022-08-07T19:54:31.099Z,21.50
2022-08-07T19:57:56.835Z,21.40
2022-08-07T19:59:40.526Z,21.40
2022-08-07T20:02:19.515Z,21.30
2022-08-07T20:04:51.722Z,21.30
2022-08-07T20:07:46.451Z,21.20
2022-08-07T20:10:36.676Z,21.20
2022-08-07T20:13:23.091Z,21.10
2022-08-07T20:15:57.792Z,21.00
2022-08-07T20:18:32.189Z,21.00
2022-08-07T20:21:03.790Z,20.90
2022-08-07T20:23:52.005Z,20.90
2022-08-07T20:26:32.513Z,20.80
2022-08-07T20:29:47.019Z,20.80
2022-08-07T20:32:02.435Z,20.80
2022-08-07T20:34:50.227Z,20.70
2022-08-07T20:37:24.272Z,20.60
2022-08-07T20:40:02.467Z,20.60
2022-08-07T20:42:34.512Z,20.60
2022-08-07T20:45:32.956Z,20.50
2022-08-07T20:47:58.496Z,20.50
2022-08-07T20:50:30.379Z,20.50
2022-08-07T20:52:59.684Z,20.40
2022-08-07T20:55:32.285Z,20.40
2022-08-07T20:58:12.067Z,20.40
2022-08-07T21:00:56.085Z,20.30
2022-08-07T21:03:26.316Z,20.30
2022-08-07T21:05:58.481Z,20.20
2022-08-07T21:08:37.735Z,20.10
2022-08-07T21:11:14.338Z,20.10
2022-08-07T21:14:16.711Z,20.10
2022-08-07T21:16:56.031Z,20.10
2022-08-07T21:19:51.441Z,20.10
2022-08-07T21:22:28.489Z,20.00
2022-08-07T21:25:13.124Z,20.00
2022-08-07T21:27:53.722Z,20.00
2022-08-07T21:30:30.037Z,19.90
2022-08-07T21:33:08.029Z,19.80
2022-08-07T21:36:06.089Z,19.80
2022-08-07T21:38:38.645Z,19.80
2022-08-07T21:41:20.032Z,19.80
2022-08-07T21:43:57.077Z,19.80
2022-08-07T21:46:45.217Z,19.80
2022-08-07T21:49:20.989Z,19.80
2022-08-07T21:52:04.384Z,19.70
2022-08-07T21:54:51.600Z,19.70
2022-08-07T21:57:44.867Z,19.70
2022-08-07T22:00:25.288Z,19.70
2022-08-07T22:03:05.729Z,19.60
2022-08-07T22:05:44.237Z,19.60
2022-08-07T22:08:18.875Z,19.60
2022-08-07T22:10:50.764Z,19.60
2022-08-07T22:13:24.414Z,19.50
2022-08-07T22:16:39.329Z,19.50
2022-08-07T22:19:08.211Z,19.50
2022-08-07T22:22:02.019Z,19.40
2022-08-07T22:24:37.583Z,19.40
2022-08-07T22:27:13.502Z,19.40
2022-08-07T22:29:50.426Z,19.40
2022-08-07T22:32:27.475Z,19.40
2022-08-07T22:34:59.341Z,19.40
2022-08-07T22:38:03.402Z,19.30
2022-08-07T22:40:30.791Z,19.30
2022-08-07T22:43:08.063Z,19.30
2022-08-07T22:46:21.341Z,19.20
2022-08-07T22:49:01.454Z,19.20
2022-08-07T22:51:54.660Z,19.20
2022-08-07T22:54:48.752Z,19.20
2022-08-07T22:57:40.898Z,19.10
2022-08-07T23:00:18.813Z,19.10
2022-08-07T23:03:09.290Z,19.10
2022-08-07T23:06:23.905Z,19.10
2022-08-07T23:10:06.206Z,19.10
2022-08-07T23:12:07.525Z,19.00
2022-08-07T23:14:50.250Z,18.90
2022-08-07T23:17:41.789Z,18.90
2022-08-07T23:20:52.710Z,18.90
2022-08-07T23:24:04.237Z,18.90
2022-08-07T23:26:50.515Z,18.70
2022-08-07T23:30:38.622Z,18.70
2022-08-07T23:34:21.702Z,18.70
2022-08-07T23:35:48.252Z,18.60
2022-08-07T23:38:36.213Z,18.50
2022-08-07T23:41:21.971Z,18.50
2022-08-07T23:44:08.125Z,18.50
2022-08-07T23:47:16.786Z,18.50
2022-08-07T23:50:17.238Z,18.50
2022-08-07T23:53:01.378Z,18.40
2022-08-07T23:55:55.327Z,18.40
2022-08-07T23:58:37.326Z,18.40
